sensor_id;sensor_type;location;lat;lon;timestamp;temperature;humidity
3842;DHT22;1936;47.074;15.336;2023-02-15T00:00:29;0.60;99.90
3842;DHT22;1936;47.074;15.336;2023-02-15T00:02:32;0.70;99.90
3842;DHT22;1936;47.074;15.336;2023-02-15T00:04:36;0.70;99.90
3842;DHT22;1936;47.074;15.336;2023-02-15T00:06:53;0.80;99.90
3842;DHT22;1936;47.074;15.336;2023-02-15T00:08:57;0.70;99.90
3842;DHT22;1936;47.074;15.336;2023-02-15T00:11:05;0.80;99.90
3842;DHT22;1936;47.074;15.336;2023-02-15T00:13:09;0.70;99.90
3842;DHT22;1936;47.074;15.336;2023-02-15T00:15:12;0.70;99.90
3842;DHT22;1936;47.074;15.336;2023-02-15T00:17:16;0.80;99.90
3842;DHT22;1936;47.074;15.336;2023-02-15T00:19:20;0.80;99.90
3842;DHT22;1936;47.074;15.336;2023-02-15T00:21:24;0.80;99.90
3842;DHT22;1936;47.074;15.336;2023-02-15T00:23:29;0.80;99.90
3842;DHT22;1936;47.074;15.336;2023-02-15T00:25:32;0.80;99.90
3842;DHT22;1936;47.074;15.336;2023-02-15T00:27:35;0.80;99.90
3842;DHT22;1936;47.074;15.336;2023-02-15T00:29:39;0.80;99.90
3842;DHT22;1936;47.074;15.336;2023-02-15T00:31:42;0.80;99.90
3842;DHT22;1936;47.074;15.336;2023-02-15T00:33:46;0.80;99.90
3842;DHT22;1936;47.074;15.336;2023-02-15T00:35:55;0.80;99.90
3842;DHT22;1936;47.074;15.336;2023-02-15T00:37:59;0.90;99.90
3842;DHT22;1936;47.074;15.336;2023-02-15T00:40:05;0.90;99.90
3842;DHT22;1936;47.074;15.336;2023-02-15T00:42:09;0.90;99.90
3842;DHT22;1936;47.074;15.336;2023-02-15T00:44:13;0.90;99.90
3842;DHT22;1936;47.074;15.336;2023-02-15T00:46:16;0.80;99.90
3842;DHT22;1936;47.074;15.336;2023-02-15T00:48:20;0.80;99.90
3842;DHT22;1936;47.074;15.336;2023-02-15T00:50:24;0.80;99.90
3842;DHT22;1936;47.074;15.336;2023-02-15T00:52:27;0.80;99.90
3842;DHT22;1936;47.074;15.336;2023-02-15T00:54:30;0.70;99.90
3842;DHT22;1936;47.074;15.336;2023-02-15T00:56:35;0.80;99.90
3842;DHT22;1936;47.074;15.336;2023-02-15T00:58:38;0.80;99.90
3842;DHT22;1936;47.074;15.336;2023-02-15T01:00:44;0.80;99.90
3842;DHT22;1936;47.074;15.336;2023-02-15T01:02:47;0.80;99.90
3842;DHT22;1936;47.074;15.336;2023-02-15T01:04:50;0.80;99.90
3842;DHT22;1936;47.074;15.336;2023-02-15T01:06:54;0.90;99.90
3842;DHT22;1936;47.074;15.336;2023-02-15T01:08:57;0.90;99.90
3842;DHT22;1936;47.074;15.336;2023-02-15T01:11:03;0.90;99.90
3842;DHT22;1936;47.074;15.336;2023-02-15T01:13:08;0.90;99.90
3842;DHT22;1936;47.074;15.336;2023-02-15T01:15:11;0.90;99.90
3842;DHT22;1936;47.074;15.336;2023-02-15T01:17:15;0.90;99.90
3842;DHT22;1936;47.074;15.336;2023-02-15T01:19:18;1.00;99.90
3842;DHT22;1936;47.074;15.336;2023-02-15T01:21:23;1.00;99.90
3842;DHT22;1936;47.074;15.336;2023-02-15T01:23:27;0.90;99.90
3842;DHT22;1936;47.074;15.336;2023-02-15T01:25:30;0.90;99.90
3842;DHT22;1936;47.074;15.336;2023-02-15T01:27:35;0.90;99.90
3842;DHT22;1936;47.074;15.336;2023-02-15T01:29:40;0.90;99.90
3842;DHT22;1936;47.074;15.336;2023-02-15T01:31:43;1.00;99.90
3842;DHT22;1936;47.074;15.336;2023-02-15T01:33:48;0.90;99.90
3842;DHT22;1936;47.074;15.336;2023-02-15T01:35:56;1.00;99.90
3842;DHT22;1936;47.074;15.336;2023-02-15T01:38:00;1.00;99.90
3842;DHT22;1936;47.074;15.336;2023-02-15T01:40:06;1.00;99.90
3842;DHT22;1936;47.074;15.336;2023-02-15T01:42:10;1.00;99.90
3842;DHT22;1936;47.074;15.336;2023-02-15T01:44:47;1.10;99.90
3842;DHT22;1936;47.074;15.336;2023-02-15T01:46:52;1.00;99.90
3842;DHT22;1936;47.074;15.336;2023-02-15T01:49:02;1.10;99.90
3842;DHT22;1936;47.074;15.336;2023-02-15T01:51:06;1.00;99.90
3842;DHT22;1936;47.074;15.336;2023-02-15T01:53:15;1.00;99.90
3842;DHT22;1936;47.074;15.336;2023-02-15T01:55:21;1.00;99.90
3842;DHT22;1936;47.074;15.336;2023-02-15T01:57:26;1.00;99.90
3842;DHT22;1936;47.074;15.336;2023-02-15T01:59:31;1.00;99.90
3842;DHT22;1936;47.074;15.336;2023-02-15T02:01:37;1.10;99.90
3842;DHT22;1936;47.074;15.336;2023-02-15T02:03:46;1.10;99.90
3842;DHT22;1936;47.074;15.336;2023-02-15T02:05:52;1.10;99.90
3842;DHT22;1936;47.074;15.336;2023-02-15T02:07:58;1.00;99.90
3842;DHT22;1936;47.074;15.336;2023-02-15T02:10:05;1.00;99.90
3842;DHT22;1936;47.074;15.336;2023-02-15T02:12:09;1.00;99.90
3842;DHT22;1936;47.074;15.336;2023-02-15T02:14:13;1.00;99.90
3842;DHT22;1936;47.074;15.336;2023-02-15T02:16:20;1.00;99.90
3842;DHT22;1936;47.074;15.336;2023-02-15T02:18:37;1.10;99.90
3842;DHT22;1936;47.074;15.336;2023-02-15T02:23:57;1.10;99.90
3842;DHT22;1936;47.074;15.336;2023-02-15T02:31:43;1.00;99.90
3842;DHT22;1936;47.074;15.336;2023-02-15T02:33:54;1.00;99.90
3842;DHT22;1936;47.074;15.336;2023-02-15T02:36:07;1.00;99.90
3842;DHT22;1936;47.074;15.336;2023-02-15T02:38:19;1.10;99.90
3842;DHT22;1936;47.074;15.336;2023-02-15T02:40:32;1.00;99.90
3842;DHT22;1936;47.074;15.336;2023-02-15T02:42:41;1.00;99.90
3842;DHT22;1936;47.074;15.336;2023-02-15T02:44:49;1.00;99.90
3842;DHT22;1936;47.074;15.336;2023-02-15T02:46:58;1.10;99.90
3842;DHT22;1936;47.074;15.336;2023-02-15T02:49:03;1.10;99.90
3842;DHT22;1936;47.074;15.336;2023-02-15T02:51:06;1.10;99.90
3842;DHT22;1936;47.074;15.336;2023-02-15T02:53:10;1.00;99.90
3842;DHT22;1936;47.074;15.336;2023-02-15T02:55:17;1.00;99.90
3842;DHT22;1936;47.074;15.336;2023-02-15T02:57:23;1.00;99.90
3842;DHT22;1936;47.074;15.336;2023-02-15T02:59:30;1.00;99.90
3842;DHT22;1936;47.074;15.336;2023-02-15T03:01:37;1.00;99.90
3842;DHT22;1936;47.074;15.336;2023-02-15T03:03:44;1.00;99.90
3842;DHT22;1936;47.074;15.336;2023-02-15T03:05:53;1.00;99.90
3842;DHT22;1936;47.074;15.336;2023-02-15T03:07:58;1.00;99.90
3842;DHT22;1936;47.074;15.336;2023-02-15T03:10:08;1.10;99.90
3842;DHT22;1936;47.074;15.336;2023-02-15T03:12:14;1.00;99.90
3842;DHT22;1936;47.074;15.336;2023-02-15T03:14:19;1.00;99.90
3842;DHT22;1936;47.074;15.336;2023-02-15T03:16:23;1.00;99.90
3842;DHT22;1936;47.074;15.336;2023-02-15T03:18:33;1.00;99.90
3842;DHT22;1936;47.074;15.336;2023-02-15T03:20:38;1.00;99.90
3842;DHT22;1936;47.074;15.336;2023-02-15T03:22:46;1.00;99.90
3842;DHT22;1936;47.074;15.336;2023-02-15T03:24:56;1.00;99.90
3842;DHT22;1936;47.074;15.336;2023-02-15T03:27:03;1.10;99.90
3842;DHT22;1936;47.074;15.336;2023-02-15T03:29:10;1.10;99.90
3842;DHT22;1936;47.074;15.336;2023-02-15T03:31:15;1.10;99.90
3842;DHT22;1936;47.074;15.336;2023-02-15T03:33:20;1.10;99.90
3842;DHT22;1936;47.074;15.336;2023-02-15T03:35:26;1.10;99.90
3842;DHT22;1936;47.074;15.336;2023-02-15T03:37:35;1.10;99.90
3842;DHT22;1936;47.074;15.336;2023-02-15T03:39:45;1.10;99.90
3842;DHT22;1936;47.074;15.336;2023-02-15T03:41:56;1.10;99.90
3842;DHT22;1936;47.074;15.336;2023-02-15T03:44:05;1.10;99.90
3842;DHT22;1936;47.074;15.336;2023-02-15T03:46:13;1.10;99.90
3842;DHT22;1936;47.074;15.336;2023-02-15T03:48:18;1.20;99.90
3842;DHT22;1936;47.074;15.336;2023-02-15T03:50:26;1.20;99.90
3842;DHT22;1936;47.074;15.336;2023-02-15T03:52:48;1.10;99.90
3842;DHT22;1936;47.074;15.336;2023-02-15T03:54:53;1.20;99.90
3842;DHT22;1936;47.074;15.336;2023-02-15T03:56:57;1.20;99.90
3842;DHT22;1936;47.074;15.336;2023-02-15T03:59:14;1.20;99.90
3842;DHT22;1936;47.074;15.336;2023-02-15T04:01:59;1.20;99.90
3842;DHT22;1936;47.074;15.336;2023-02-15T04:04:11;1.20;99.90
3842;DHT22;1936;47.074;15.336;2023-02-15T04:06:16;1.20;99.90
3842;DHT22;1936;47.074;15.336;2023-02-15T04:08:20;1.20;99.90
3842;DHT22;1936;47.074;15.336;2023-02-15T04:10:44;1.20;99.90
3842;DHT22;1936;47.074;15.336;2023-02-15T04:12:57;1.20;99.90
3842;DHT22;1936;47.074;15.336;2023-02-15T04:15:01;1.20;99.90
3842;DHT22;1936;47.074;15.336;2023-02-15T04:17:22;1.20;99.90
3842;DHT22;1936;47.074;15.336;2023-02-15T04:19:25;1.20;99.90
3842;DHT22;1936;47.074;15.336;2023-02-15T04:21:46;1.30;99.90
3842;DHT22;1936;47.074;15.336;2023-02-15T04:24:07;1.40;99.90
3842;DHT22;1936;47.074;15.336;2023-02-15T04:26:29;1.40;99.90
3842;DHT22;1936;47.074;15.336;2023-02-15T04:28:32;1.50;99.90
3842;DHT22;1936;47.074;15.336;2023-02-15T04:30:36;1.50;99.90
3842;DHT22;1936;47.074;15.336;2023-02-15T04:32:39;1.50;99.90
3842;DHT22;1936;47.074;15.336;2023-02-15T04:34:42;1.50;99.90
3842;DHT22;1936;47.074;15.336;2023-02-15T04:36:46;1.50;99.90
3842;DHT22;1936;47.074;15.336;2023-02-15T04:38:49;1.50;99.90
3842;DHT22;1936;47.074;15.336;2023-02-15T04:40:52;1.50;99.90
3842;DHT22;1936;47.074;15.336;2023-02-15T04:42:57;1.50;99.90
3842;DHT22;1936;47.074;15.336;2023-02-15T04:45:00;1.50;99.90
3842;DHT22;1936;47.074;15.336;2023-02-15T04:47:04;1.50;99.90
3842;DHT22;1936;47.074;15.336;2023-02-15T04:49:08;1.50;99.90
3842;DHT22;1936;47.074;15.336;2023-02-15T04:51:12;1.50;99.90
3842;DHT22;1936;47.074;15.336;2023-02-15T04:53:15;1.40;99.90
3842;DHT22;1936;47.074;15.336;2023-02-15T04:55:20;1.40;99.90
3842;DHT22;1936;47.074;15.336;2023-02-15T04:57:23;1.40;99.90
3842;DHT22;1936;47.074;15.336;2023-02-15T04:59:28;1.50;99.90
3842;DHT22;1936;47.074;15.336;2023-02-15T05:01:31;1.40;99.90
3842;DHT22;1936;47.074;15.336;2023-02-15T05:03:35;1.40;99.90
3842;DHT22;1936;47.074;15.336;2023-02-15T05:05:38;1.30;99.90
3842;DHT22;1936;47.074;15.336;2023-02-15T05:07:42;1.30;99.90
3842;DHT22;1936;47.074;15.336;2023-02-15T05:09:46;1.30;99.90
3842;DHT22;1936;47.074;15.336;2023-02-15T05:11:49;1.20;99.90
3842;DHT22;1936;47.074;15.336;2023-02-15T05:13:53;1.20;99.90
3842;DHT22;1936;47.074;15.336;2023-02-15T05:15:58;1.10;99.90
3842;DHT22;1936;47.074;15.336;2023-02-15T05:18:01;1.10;99.90
3842;DHT22;1936;47.074;15.336;2023-02-15T05:20:06;1.10;99.90
3842;DHT22;1936;47.074;15.336;2023-02-15T05:22:09;1.00;99.90
3842;DHT22;1936;47.074;15.336;2023-02-15T05:24:12;1.00;99.90
3842;DHT22;1936;47.074;15.336;2023-02-15T05:26:33;1.00;99.90
3842;DHT22;1936;47.074;15.336;2023-02-15T05:28:53;0.90;99.90
3842;DHT22;1936;47.074;15.336;2023-02-15T05:31:05;0.90;99.90
3842;DHT22;1936;47.074;15.336;2023-02-15T05:33:09;0.80;99.90
3842;DHT22;1936;47.074;15.336;2023-02-15T05:35:14;0.70;99.90
3842;DHT22;1936;47.074;15.336;2023-02-15T05:37:18;0.70;99.90
3842;DHT22;1936;47.074;15.336;2023-02-15T05:39:21;0.60;99.90
3842;DHT22;1936;47.074;15.336;2023-02-15T05:41:25;0.60;99.90
3842;DHT22;1936;47.074;15.336;2023-02-15T05:43:28;0.50;99.90
3842;DHT22;1936;47.074;15.336;2023-02-15T05:45:31;0.50;99.90
3842;DHT22;1936;47.074;15.336;2023-02-15T05:47:36;0.40;99.90
3842;DHT22;1936;47.074;15.336;2023-02-15T05:49:39;0.30;99.90
3842;DHT22;1936;47.074;15.336;2023-02-15T05:51:43;0.40;99.90
3842;DHT22;1936;47.074;15.336;2023-02-15T05:53:46;0.30;99.90
3842;DHT22;1936;47.074;15.336;2023-02-15T05:55:49;0.20;99.90
3842;DHT22;1936;47.074;15.336;2023-02-15T05:57:53;0.10;99.90
3842;DHT22;1936;47.074;15.336;2023-02-15T05:59:56;0.00;99.90
3842;DHT22;1936;47.074;15.336;2023-02-15T06:01:59;0.00;99.90
3842;DHT22;1936;47.074;15.336;2023-02-15T06:04:04;-0.10;99.90
3842;DHT22;1936;47.074;15.336;2023-02-15T06:06:08;-0.10;99.90
3842;DHT22;1936;47.074;15.336;2023-02-15T06:08:11;-0.20;99.90
3842;DHT22;1936;47.074;15.336;2023-02-15T06:10:14;-0.20;99.90
3842;DHT22;1936;47.074;15.336;2023-02-15T06:12:18;-0.30;99.90
3842;DHT22;1936;47.074;15.336;2023-02-15T06:14:21;-0.20;99.90
3842;DHT22;1936;47.074;15.336;2023-02-15T06:16:24;-0.30;99.90
3842;DHT22;1936;47.074;15.336;2023-02-15T06:18:28;-0.30;99.90
3842;DHT22;1936;47.074;15.336;2023-02-15T06:20:33;-0.30;99.90
3842;DHT22;1936;47.074;15.336;2023-02-15T06:22:36;-0.30;99.90
3842;DHT22;1936;47.074;15.336;2023-02-15T06:24:40;-0.30;99.90
3842;DHT22;1936;47.074;15.336;2023-02-15T06:26:44;-0.30;99.90
3842;DHT22;1936;47.074;15.336;2023-02-15T06:28:47;-0.20;99.90
3842;DHT22;1936;47.074;15.336;2023-02-15T06:30:51;-0.20;99.90
3842;DHT22;1936;47.074;15.336;2023-02-15T06:32:55;-0.20;99.90
3842;DHT22;1936;47.074;15.336;2023-02-15T06:34:58;-0.20;99.90
3842;DHT22;1936;47.074;15.336;2023-02-15T06:37:03;-0.10;99.90
3842;DHT22;1936;47.074;15.336;2023-02-15T06:39:07;-0.10;99.90
3842;DHT22;1936;47.074;15.336;2023-02-15T06:41:10;-0.10;99.90
3842;DHT22;1936;47.074;15.336;2023-02-15T06:43:13;-0.20;99.90
3842;DHT22;1936;47.074;15.336;2023-02-15T06:45:17;-0.10;99.90
3842;DHT22;1936;47.074;15.336;2023-02-15T06:47:20;-0.20;99.90
3842;DHT22;1936;47.074;15.336;2023-02-15T06:49:23;-0.20;99.90
3842;DHT22;1936;47.074;15.336;2023-02-15T06:51:27;-0.10;99.90
3842;DHT22;1936;47.074;15.336;2023-02-15T06:53:32;-0.10;99.90
3842;DHT22;1936;47.074;15.336;2023-02-15T06:55:35;-0.10;99.90
3842;DHT22;1936;47.074;15.336;2023-02-15T06:57:38;-0.10;99.90
3842;DHT22;1936;47.074;15.336;2023-02-15T06:59:42;-0.10;99.90
3842;DHT22;1936;47.074;15.336;2023-02-15T07:01:45;-0.10;99.90
3842;DHT22;1936;47.074;15.336;2023-02-15T07:03:49;-0.20;99.90
3842;DHT22;1936;47.074;15.336;2023-02-15T07:05:54;-0.20;99.90
3842;DHT22;1936;47.074;15.336;2023-02-15T07:07:59;-0.20;99.90
3842;DHT22;1936;47.074;15.336;2023-02-15T07:10:05;-0.20;99.90
3842;DHT22;1936;47.074;15.336;2023-02-15T07:12:09;-0.20;99.90
3842;DHT22;1936;47.074;15.336;2023-02-15T07:14:30;-0.10;99.90
3842;DHT22;1936;47.074;15.336;2023-02-15T07:16:33;0.00;99.90
3842;DHT22;1936;47.074;15.336;2023-02-15T07:18:37;0.10;99.90
3842;DHT22;1936;47.074;15.336;2023-02-15T07:20:40;0.20;99.90
3842;DHT22;1936;47.074;15.336;2023-02-15T07:22:44;0.20;99.90
3842;DHT22;1936;47.074;15.336;2023-02-15T07:24:48;0.30;99.90
3842;DHT22;1936;47.074;15.336;2023-02-15T07:26:53;0.20;99.90
3842;DHT22;1936;47.074;15.336;2023-02-15T07:28:56;0.30;99.90
3842;DHT22;1936;47.074;15.336;2023-02-15T07:31:01;0.30;99.90
3842;DHT22;1936;47.074;15.336;2023-02-15T07:33:04;0.50;99.90
3842;DHT22;1936;47.074;15.336;2023-02-15T07:35:26;0.70;99.90
3842;DHT22;1936;47.074;15.336;2023-02-15T07:37:30;0.70;99.90
3842;DHT22;1936;47.074;15.336;2023-02-15T07:39:33;1.00;99.90
3842;DHT22;1936;47.074;15.336;2023-02-15T07:41:37;1.20;99.90
3842;DHT22;1936;47.074;15.336;2023-02-15T07:43:43;1.30;99.90
3842;DHT22;1936;47.074;15.336;2023-02-15T07:45:46;1.50;99.90
3842;DHT22;1936;47.074;15.336;2023-02-15T07:47:50;1.60;99.90
3842;DHT22;1936;47.074;15.336;2023-02-15T07:49:53;1.70;99.90
3842;DHT22;1936;47.074;15.336;2023-02-15T07:51:57;1.80;99.90
3842;DHT22;1936;47.074;15.336;2023-02-15T07:54:00;1.80;99.90
3842;DHT22;1936;47.074;15.336;2023-02-15T07:56:05;1.90;99.90
3842;DHT22;1936;47.074;15.336;2023-02-15T07:58:09;2.00;99.90
3842;DHT22;1936;47.074;15.336;2023-02-15T08:00:15;2.40;99.90
3842;DHT22;1936;47.074;15.336;2023-02-15T08:02:19;2.50;99.90
3842;DHT22;1936;47.074;15.336;2023-02-15T08:04:23;2.70;99.90
3842;DHT22;1936;47.074;15.336;2023-02-15T08:06:31;2.80;99.90
3842;DHT22;1936;47.074;15.336;2023-02-15T08:08:35;2.90;99.90
3842;DHT22;1936;47.074;15.336;2023-02-15T08:10:39;2.90;99.90
3842;DHT22;1936;47.074;15.336;2023-02-15T08:13:00;3.00;99.90
3842;DHT22;1936;47.074;15.336;2023-02-15T08:15:03;3.40;99.90
3842;DHT22;1936;47.074;15.336;2023-02-15T08:17:08;3.50;99.90
3842;DHT22;1936;47.074;15.336;2023-02-15T08:19:13;3.80;99.90
3842;DHT22;1936;47.074;15.336;2023-02-15T08:21:17;3.80;99.90
3842;DHT22;1936;47.074;15.336;2023-02-15T08:23:20;3.70;99.90
3842;DHT22;1936;47.074;15.336;2023-02-15T08:25:24;5.00;99.90
3842;DHT22;1936;47.074;15.336;2023-02-15T08:27:27;5.80;99.90
3842;DHT22;1936;47.074;15.336;2023-02-15T08:29:34;6.60;99.90
3842;DHT22;1936;47.074;15.336;2023-02-15T08:31:39;6.50;99.90
3842;DHT22;1936;47.074;15.336;2023-02-15T08:33:45;5.70;99.90
3842;DHT22;1936;47.074;15.336;2023-02-15T08:35:49;5.50;99.90
3842;DHT22;1936;47.074;15.336;2023-02-15T08:37:53;5.40;99.90
3842;DHT22;1936;47.074;15.336;2023-02-15T08:39:57;5.30;99.90
3842;DHT22;1936;47.074;15.336;2023-02-15T08:42:00;5.20;99.90
3842;DHT22;1936;47.074;15.336;2023-02-15T08:44:05;5.00;99.90
3842;DHT22;1936;47.074;15.336;2023-02-15T08:46:10;5.10;99.90
3842;DHT22;1936;47.074;15.336;2023-02-15T08:48:13;4.80;99.90
3842;DHT22;1936;47.074;15.336;2023-02-15T08:50:18;4.70;99.90
3842;DHT22;1936;47.074;15.336;2023-02-15T08:52:21;5.40;99.90
3842;DHT22;1936;47.074;15.336;2023-02-15T08:56:29;7.00;99.90
3842;DHT22;1936;47.074;15.336;2023-02-15T08:58:35;7.00;99.90
3842;DHT22;1936;47.074;15.336;2023-02-15T09:00:38;7.00;99.90
3842;DHT22;1936;47.074;15.336;2023-02-15T09:02:42;7.60;99.90
3842;DHT22;1936;47.074;15.336;2023-02-15T09:04:45;9.40;97.00
3842;DHT22;1936;47.074;15.336;2023-02-15T09:08:55;11.40;85.90
3842;DHT22;1936;47.074;15.336;2023-02-15T09:11:07;12.30;73.70
3842;DHT22;1936;47.074;15.336;2023-02-15T09:13:10;11.60;72.30
3842;DHT22;1936;47.074;15.336;2023-02-15T09:15:13;11.90;73.60
3842;DHT22;1936;47.074;15.336;2023-02-15T09:17:17;12.70;66.60
3842;DHT22;1936;47.074;15.336;2023-02-15T09:19:21;12.60;65.40
3842;DHT22;1936;47.074;15.336;2023-02-15T09:21:26;13.40;67.10
3842;DHT22;1936;47.074;15.336;2023-02-15T09:23:31;14.70;65.10
3842;DHT22;1936;47.074;15.336;2023-02-15T09:25:34;14.40;57.20
3842;DHT22;1936;47.074;15.336;2023-02-15T09:27:37;14.30;57.70
3842;DHT22;1936;47.074;15.336;2023-02-15T09:29:41;14.80;54.90
3842;DHT22;1936;47.074;15.336;2023-02-15T09:31:46;15.00;55.90
3842;DHT22;1936;47.074;15.336;2023-02-15T09:33:51;14.90;56.30
3842;DHT22;1936;47.074;15.336;2023-02-15T09:35:54;15.40;54.60
3842;DHT22;1936;47.074;15.336;2023-02-15T09:37:59;15.70;54.20
3842;DHT22;1936;47.074;15.336;2023-02-15T09:40:05;15.70;53.10
3842;DHT22;1936;47.074;15.336;2023-02-15T09:42:33;16.00;55.40
3842;DHT22;1936;47.074;15.336;2023-02-15T09:44:51;16.40;51.20
3842;DHT22;1936;47.074;15.336;2023-02-15T09:47:19;16.30;52.00
3842;DHT22;1936;47.074;15.336;2023-02-15T09:49:31;16.60;49.60
3842;DHT22;1936;47.074;15.336;2023-02-15T09:54:15;15.80;48.80
3842;DHT22;1936;47.074;15.336;2023-02-15T09:56:31;16.60;48.40
3842;DHT22;1936;47.074;15.336;2023-02-15T09:58:48;16.70;47.90
3842;DHT22;1936;47.074;15.336;2023-02-15T10:01:00;18.10;46.00
3842;DHT22;1936;47.074;15.336;2023-02-15T10:03:26;17.10;46.80
3842;DHT22;1936;47.074;15.336;2023-02-15T10:05:42;16.20;47.10
3842;DHT22;1936;47.074;15.336;2023-02-15T10:08:07;16.80;48.00
3842;DHT22;1936;47.074;15.336;2023-02-15T10:10:21;17.30;48.90
3842;DHT22;1936;47.074;15.336;2023-02-15T10:12:51;17.80;46.10
3842;DHT22;1936;47.074;15.336;2023-02-15T10:15:21;18.10;46.10
3842;DHT22;1936;47.074;15.336;2023-02-15T10:17:36;17.80;46.40
3842;DHT22;1936;47.074;15.336;2023-02-15T10:19:51;16.60;47.70
3842;DHT22;1936;47.074;15.336;2023-02-15T10:22:10;17.50;45.40
3842;DHT22;1936;47.074;15.336;2023-02-15T10:24:27;17.40;46.90
3842;DHT22;1936;47.074;15.336;2023-02-15T10:26:37;17.80;46.90
3842;DHT22;1936;47.074;15.336;2023-02-15T10:30:54;17.00;47.10
3842;DHT22;1936;47.074;15.336;2023-02-15T10:33:01;17.50;47.30
3842;DHT22;1936;47.074;15.336;2023-02-15T10:35:13;16.60;47.50
3842;DHT22;1936;47.074;15.336;2023-02-15T10:37:48;16.30;48.10
3842;DHT22;1936;47.074;15.336;2023-02-15T10:40:02;16.80;49.00
3842;DHT22;1936;47.074;15.336;2023-02-15T10:42:16;15.60;49.60
3842;DHT22;1936;47.074;15.336;2023-02-15T10:44:35;15.40;50.70
3842;DHT22;1936;47.074;15.336;2023-02-15T10:49:38;15.40;49.60
3842;DHT22;1936;47.074;15.336;2023-02-15T10:51:56;16.40;49.40
3842;DHT22;1936;47.074;15.336;2023-02-15T10:54:12;17.20;48.10
3842;DHT22;1936;47.074;15.336;2023-02-15T10:56:21;16.80;47.10
3842;DHT22;1936;47.074;15.336;2023-02-15T10:58:42;15.50;49.40
3842;DHT22;1936;47.074;15.336;2023-02-15T11:00:58;15.20;50.80
3842;DHT22;1936;47.074;15.336;2023-02-15T11:05:29;14.90;50.40
3842;DHT22;1936;47.074;15.336;2023-02-15T11:09:44;14.70;52.10
3842;DHT22;1936;47.074;15.336;2023-02-15T11:11:52;14.00;52.20
3842;DHT22;1936;47.074;15.336;2023-02-15T11:13:59;14.10;52.60
3842;DHT22;1936;47.074;15.336;2023-02-15T11:16:11;14.10;52.40
3842;DHT22;1936;47.074;15.336;2023-02-15T11:18:25;13.70;53.70
3842;DHT22;1936;47.074;15.336;2023-02-15T11:20:33;13.20;55.30
3842;DHT22;1936;47.074;15.336;2023-02-15T11:22:39;13.00;55.70
3842;DHT22;1936;47.074;15.336;2023-02-15T11:26:53;12.70;54.70
3842;DHT22;1936;47.074;15.336;2023-02-15T11:29:02;12.00;56.40
3842;DHT22;1936;47.074;15.336;2023-02-15T11:35:27;12.00;58.70
3842;DHT22;1936;47.074;15.336;2023-02-15T11:37:37;12.10;57.10
3842;DHT22;1936;47.074;15.336;2023-02-15T11:39:42;11.10;59.60
3842;DHT22;1936;47.074;15.336;2023-02-15T11:41:49;10.70;60.10
3842;DHT22;1936;47.074;15.336;2023-02-15T11:43:59;10.70;61.80
3842;DHT22;1936;47.074;15.336;2023-02-15T11:46:10;11.40;61.20
3842;DHT22;1936;47.074;15.336;2023-02-15T11:48:16;11.90;59.20
3842;DHT22;1936;47.074;15.336;2023-02-15T11:50:23;11.50;59.10
3842;DHT22;1936;47.074;15.336;2023-02-15T11:52:27;12.30;58.20
3842;DHT22;1936;47.074;15.336;2023-02-15T11:54:32;11.30;59.30
3842;DHT22;1936;47.074;15.336;2023-02-15T11:56:37;11.30;60.50
3842;DHT22;1936;47.074;15.336;2023-02-15T12:00:50;11.50;59.20
3842;DHT22;1936;47.074;15.336;2023-02-15T12:02:57;10.70;60.80
3842;DHT22;1936;47.074;15.336;2023-02-15T12:05:07;11.20;63.30
3842;DHT22;1936;47.074;15.336;2023-02-15T12:07:17;11.00;61.40
3842;DHT22;1936;47.074;15.336;2023-02-15T12:11:35;11.50;61.30
3842;DHT22;1936;47.074;15.336;2023-02-15T12:15:59;11.30;61.60
3842;DHT22;1936;47.074;15.336;2023-02-15T12:18:21;11.60;61.80
3842;DHT22;1936;47.074;15.336;2023-02-15T12:20:32;12.30;59.70
3842;DHT22;1936;47.074;15.336;2023-02-15T12:22:37;12.50;57.20
3842;DHT22;1936;47.074;15.336;2023-02-15T12:24:45;12.20;59.00
3842;DHT22;1936;47.074;15.336;2023-02-15T12:26:57;12.40;59.40
3842;DHT22;1936;47.074;15.336;2023-02-15T12:29:07;11.80;60.00
3842;DHT22;1936;47.074;15.336;2023-02-15T12:33:28;11.60;61.20
3842;DHT22;1936;47.074;15.336;2023-02-15T12:35:36;12.20;61.00
3842;DHT22;1936;47.074;15.336;2023-02-15T12:37:52;11.70;60.60
3842;DHT22;1936;47.074;15.336;2023-02-15T12:39:58;12.20;60.10
3842;DHT22;1936;47.074;15.336;2023-02-15T12:42:13;11.80;59.20
3842;DHT22;1936;47.074;15.336;2023-02-15T12:44:20;12.10;60.40
3842;DHT22;1936;47.074;15.336;2023-02-15T12:46:26;12.40;60.60
3842;DHT22;1936;47.074;15.336;2023-02-15T12:48:30;12.20;59.90
3842;DHT22;1936;47.074;15.336;2023-02-15T12:50:35;11.80;59.80
3842;DHT22;1936;47.074;15.336;2023-02-15T12:52:38;12.50;59.30
3842;DHT22;1936;47.074;15.336;2023-02-15T12:56:45;12.90;57.40
3842;DHT22;1936;47.074;15.336;2023-02-15T13:01:12;14.30;54.70
3842;DHT22;1936;47.074;15.336;2023-02-15T13:07:31;15.00;55.00
3842;DHT22;1936;47.074;15.336;2023-02-15T13:09:38;14.40;54.20
3842;DHT22;1936;47.074;15.336;2023-02-15T13:13:51;15.10;53.40
3842;DHT22;1936;47.074;15.336;2023-02-15T13:15:58;15.30;52.50
3842;DHT22;1936;47.074;15.336;2023-02-15T13:18:04;15.60;52.90
3842;DHT22;1936;47.074;15.336;2023-02-15T13:22:22;15.40;52.50
3842;DHT22;1936;47.074;15.336;2023-02-15T13:24:33;15.20;52.60
3842;DHT22;1936;47.074;15.336;2023-02-15T13:26:38;15.60;52.00
3842;DHT22;1936;47.074;15.336;2023-02-15T13:28:48;15.20;53.10
3842;DHT22;1936;47.074;15.336;2023-02-15T13:30:53;14.80;53.50
3842;DHT22;1936;47.074;15.336;2023-02-15T13:32:59;14.90;53.20
3842;DHT22;1936;47.074;15.336;2023-02-15T13:35:05;14.90;52.90
3842;DHT22;1936;47.074;15.336;2023-02-15T13:37:16;15.30;52.80
3842;DHT22;1936;47.074;15.336;2023-02-15T13:39:26;15.00;54.50
3842;DHT22;1936;47.074;15.336;2023-02-15T13:41:35;14.80;54.00
3842;DHT22;1936;47.074;15.336;2023-02-15T13:43:50;14.90;53.30
3842;DHT22;1936;47.074;15.336;2023-02-15T13:46:18;14.00;54.00
3842;DHT22;1936;47.074;15.336;2023-02-15T13:48:34;14.10;55.00
3842;DHT22;1936;47.074;15.336;2023-02-15T13:50:59;14.40;54.30
3842;DHT22;1936;47.074;15.336;2023-02-15T13:53:27;13.70;55.00
3842;DHT22;1936;47.074;15.336;2023-02-15T13:55:38;14.20;54.70
3842;DHT22;1936;47.074;15.336;2023-02-15T13:58:01;14.00;55.10
3842;DHT22;1936;47.074;15.336;2023-02-15T14:00:13;13.80;55.00
3842;DHT22;1936;47.074;15.336;2023-02-15T14:02:36;13.80;55.50
3842;DHT22;1936;47.074;15.336;2023-02-15T14:04:52;13.00;56.60
3842;DHT22;1936;47.074;15.336;2023-02-15T14:09:44;13.30;55.80
3842;DHT22;1936;47.074;15.336;2023-02-15T14:11:56;13.00;56.70
3842;DHT22;1936;47.074;15.336;2023-02-15T14:14:24;13.50;57.30
3842;DHT22;1936;47.074;15.336;2023-02-15T14:16:39;13.00;57.70
3842;DHT22;1936;47.074;15.336;2023-02-15T14:18:57;12.90;57.70
3842;DHT22;1936;47.074;15.336;2023-02-15T14:21:07;13.50;57.30
3842;DHT22;1936;47.074;15.336;2023-02-15T14:27:55;12.10;59.30
3842;DHT22;1936;47.074;15.336;2023-02-15T14:30:03;11.50;59.70
3842;DHT22;1936;47.074;15.336;2023-02-15T14:32:10;11.30;61.50
3842;DHT22;1936;47.074;15.336;2023-02-15T14:34:19;11.40;62.70
3842;DHT22;1936;47.074;15.336;2023-02-15T14:36:25;11.00;62.50
3842;DHT22;1936;47.074;15.336;2023-02-15T14:38:51;10.70;63.70
3842;DHT22;1936;47.074;15.336;2023-02-15T14:41:01;10.00;65.70
3842;DHT22;1936;47.074;15.336;2023-02-15T14:43:09;10.20;66.80
3842;DHT22;1936;47.074;15.336;2023-02-15T14:45:20;9.90;68.30
3842;DHT22;1936;47.074;15.336;2023-02-15T14:47:30;10.00;67.90